Unionville, Iowa
Current Conditions -  °F | °C
As of 4:35 PM on Friday 31 Oct 2014 (Local Time) from KTVK Reporting Station
Clear Clear  
Wind Chill: 35°   Ceiling: Unl
Heat Index: 41°   Visibility: 10mi
Dew Point: 18°   Wind: 10mph
Humidity: 39%   Direction: 330°NNW
Pressure: 30.43"   Gusts: 18mph
Location:  40.82°N, 92.7°W
Report Text: KTVK 312135Z AUTO 33009G16KT 10SM CLR 05/M08 A3043 RMK AO2
Loading
Personal Weather Stations






























Interactive Weather Map
Tropical Storm Tracking
New forecast layout! Learn more

10-Day Weather Forecast

Advertisements
Track Severe Weather on mobile